VTSH  Songkhla Airport

Add Bookmark

Thailand

Status IATA
Operational SGZ
Latitude Longitude
7° 11' 11" N 100° 36' 28" E
7.186560 100.608002
Local (DST + 7) UTC (GMT + 7)
Jan 31, 2015 02:01 Jan 31, 2015 07:01
Sunrise-Sunset Local UTC
Begin Civil Twilight 06:13 23:13
Sunrise 06:35 23:35
Sunset 06:26 11:26
End Civil Twilight 06:48 11:48

Current Weather

METAR Observed VFR
VTSH 310600Z 10006KT 9000 FEW020 BKN300 30/23 Q1014 A2995 Sat, Jan 31, 2015 @ 06:00 UTC
(1 Hour, 1 Minute ago)
Visual Flight Rules
Wind Visibility Clouds Conditions
100° at 6 knots (11 kph) 9000 meters
  • Few at 2,000' AGL
  • Broken at 30,000' AGL
  • No significant weather
Temperatures Readings Precipitation
Current Temp 30°C (86°F)
Dewpoint 23°C (73°F)
Heat Index 34°C (93°F)
Humidity 66%
Altimeter 29.94"Hg
Sea Level Pressure 1014mb
Field Elevation 16.4'
None Recorded

Additional weather within a 92.6km radius of VTSH

Map ICAO Location
VTSS 36.9km S (220°)

24 Hour Weather History

Loading
-

24 Hour Weather Graphs

Loading
-

CheckWX.com is intended as a tool to help pilots better visualize weather data. It is not intended as a substitute for an official weather briefing obtained from a Flight Service Station. CheckWX.com does not meet the FAA requirements for an official pre-flight weather briefing. Therefore, it's important that pilots still call and obtain an official FSS pre-flight weather briefing.